createdAt,value
2023-05-22T00:02:08.556Z,16.00
2023-05-22T00:04:35.217Z,16.05
2023-05-22T00:07:01.820Z,15.93
2023-05-22T00:09:30.736Z,15.79
2023-05-22T00:11:57.439Z,15.82
2023-05-22T00:14:24.044Z,15.76
2023-05-22T00:16:50.705Z,15.64
2023-05-22T00:19:18.298Z,15.31
2023-05-22T00:21:45.525Z,15.44
2023-05-22T00:24:12.588Z,15.46
2023-05-22T00:26:41.658Z,15.45
2023-05-22T00:29:11.548Z,15.47
2023-05-22T00:31:38.221Z,15.33
2023-05-22T00:34:04.891Z,15.34
2023-05-22T00:36:34.174Z,15.29
2023-05-22T00:39:00.958Z,15.31
2023-05-22T00:41:27.884Z,15.28
2023-05-22T00:43:56.722Z,15.29
2023-05-22T00:46:24.593Z,15.32
2023-05-22T00:48:52.659Z,15.26
2023-05-22T00:51:24.919Z,15.22
2023-05-22T00:53:52.206Z,15.22
2023-05-22T00:56:21.909Z,15.18
2023-05-22T00:58:50.795Z,15.11
2023-05-22T01:01:17.889Z,15.09
2023-05-22T01:03:47.925Z,15.14
2023-05-22T01:06:16.043Z,15.12
2023-05-22T01:08:47.418Z,14.95
2023-05-22T01:11:22.315Z,14.91
2023-05-22T01:14:08.485Z,14.81
2023-05-22T01:16:59.802Z,14.69
2023-05-22T01:19:54.103Z,14.66
2023-05-22T01:22:58.465Z,14.58
2023-05-22T01:25:47.543Z,14.55
2023-05-22T01:28:25.992Z,14.53
2023-05-22T01:31:17.955Z,14.52
2023-05-22T01:33:55.003Z,14.52
2023-05-22T01:36:31.764Z,14.52
2023-05-22T01:39:01.620Z,14.57
2023-05-22T01:41:32.525Z,14.62
2023-05-22T01:44:04.452Z,14.58
2023-05-22T01:46:31.416Z,14.47
2023-05-22T01:48:58.778Z,14.39
2023-05-22T01:51:52.740Z,14.38
2023-05-22T01:54:22.683Z,14.36
2023-05-22T01:56:57.520Z,14.13
2023-05-22T01:59:33.109Z,14.17
2023-05-22T02:02:07.626Z,14.06
2023-05-22T02:04:41.361Z,14.01
2023-05-22T02:07:12.429Z,13.98
2023-05-22T02:09:41.123Z,13.91
2023-05-22T02:12:14.208Z,13.88
2023-05-22T02:14:42.897Z,13.89
2023-05-22T02:17:12.404Z,13.85
2023-05-22T02:19:41.262Z,13.82
2023-05-22T02:22:13.681Z,13.84
2023-05-22T02:24:47.696Z,13.82
2023-05-22T02:27:14.560Z,13.76
2023-05-22T02:29:46.567Z,13.73
2023-05-22T02:32:13.174Z,13.68
2023-05-22T02:34:39.813Z,13.65
2023-05-22T02:37:06.419Z,13.72
2023-05-22T02:39:32.998Z,13.81
2023-05-22T02:42:02.146Z,13.86
2023-05-22T02:44:28.715Z,13.81
2023-05-22T02:46:57.622Z,13.78
2023-05-22T02:49:24.274Z,13.67
2023-05-22T02:51:50.943Z,13.71
2023-05-22T02:54:19.831Z,13.80
2023-05-22T02:56:46.514Z,13.86
2023-05-22T02:59:13.173Z,13.78
2023-05-22T03:01:39.944Z,13.72
2023-05-22T03:04:06.899Z,13.65
2023-05-22T03:06:37.234Z,13.58
2023-05-22T03:09:06.364Z,13.59
2023-05-22T03:11:33.059Z,13.72
2023-05-22T03:14:04.364Z,13.63
2023-05-22T03:16:36.035Z,13.63
2023-05-22T03:19:16.356Z,13.40
2023-05-22T03:21:45.604Z,13.43
2023-05-22T03:24:14.682Z,13.36
2023-05-22T03:26:41.921Z,13.19
2023-05-22T03:29:08.604Z,13.33
2023-05-22T03:31:39.175Z,13.28
2023-05-22T03:34:06.247Z,13.25
2023-05-22T03:36:38.152Z,13.28
2023-05-22T03:39:05.504Z,13.22
2023-05-22T03:41:32.115Z,13.25
2023-05-22T03:44:03.134Z,13.16
2023-05-22T03:46:29.858Z,13.13
2023-05-22T03:48:59.045Z,13.10
2023-05-22T03:51:27.838Z,13.25
2023-05-22T03:53:54.393Z,13.09
2023-05-22T03:56:23.215Z,13.12
2023-05-22T03:58:52.218Z,13.20
2023-05-22T04:01:18.879Z,13.17
2023-05-22T04:03:47.941Z,13.10
2023-05-22T04:06:14.691Z,13.06
2023-05-22T04:08:41.385Z,13.11
2023-05-22T04:11:08.388Z,13.17
2023-05-22T04:13:37.335Z,13.24
2023-05-22T04:16:04.637Z,13.17
2023-05-22T04:18:31.355Z,13.22
2023-05-22T04:21:00.363Z,13.33
2023-05-22T04:23:26.988Z,13.32
2023-05-22T04:25:55.821Z,13.26
2023-05-22T04:28:25.120Z,13.21
2023-05-22T04:30:52.417Z,13.18
2023-05-22T04:33:21.925Z,13.22
2023-05-22T04:35:54.573Z,13.19
2023-05-22T04:38:26.409Z,13.22
2023-05-22T04:40:53.024Z,13.30
2023-05-22T04:43:19.723Z,13.60
2023-05-22T04:45:48.452Z,13.70
2023-05-22T04:48:15.453Z,13.92
2023-05-22T04:50:42.277Z,14.01
2023-05-22T04:53:08.996Z,14.08
2023-05-22T04:55:35.664Z,14.07
2023-05-22T04:58:02.766Z,14.03
2023-05-22T05:00:34.470Z,14.08
2023-05-22T05:03:04.106Z,14.17
2023-05-22T05:05:30.838Z,14.64
2023-05-22T05:08:02.494Z,14.69
2023-05-22T05:10:29.119Z,15.27
2023-05-22T05:13:00.474Z,15.61
2023-05-22T05:15:27.647Z,16.44
2023-05-22T05:17:54.276Z,17.83
2023-05-22T05:20:21.110Z,18.42
2023-05-22T05:22:47.997Z,18.84
2023-05-22T05:25:16.888Z,19.97
2023-05-22T05:27:43.478Z,20.75
2023-05-22T05:30:10.797Z,20.45
2023-05-22T05:32:38.851Z,20.11
2023-05-22T05:35:07.994Z,19.21
2023-05-22T05:37:34.533Z,19.07
2023-05-22T05:40:05.019Z,18.43
2023-05-22T05:42:34.665Z,18.24
2023-05-22T05:45:01.317Z,18.76
2023-05-22T05:47:29.761Z,19.44
2023-05-22T05:49:56.439Z,19.57
2023-05-22T05:52:24.756Z,19.04
2023-05-22T05:54:52.032Z,18.82
2023-05-22T05:57:21.129Z,20.05
2023-05-22T05:59:50.092Z,20.46
2023-05-22T06:02:16.887Z,19.99
2023-05-22T06:04:43.533Z,20.62
2023-05-22T06:07:12.540Z,21.90
2023-05-22T06:09:41.498Z,22.68
2023-05-22T06:12:12.474Z,23.64
2023-05-22T06:14:41.939Z,23.94
2023-05-22T06:17:13.608Z,23.99
2023-05-22T06:19:44.945Z,24.48
2023-05-22T06:22:11.661Z,24.52
2023-05-22T06:24:38.252Z,24.63
2023-05-22T06:27:05.625Z,24.98
2023-05-22T06:29:32.210Z,24.83
2023-05-22T06:31:58.886Z,23.75
2023-05-22T06:34:25.878Z,23.58
2023-05-22T06:36:57.307Z,22.43
2023-05-22T06:39:23.985Z,21.30
2023-05-22T06:41:52.781Z,20.98
2023-05-22T06:44:20.309Z,20.61
2023-05-22T06:46:46.967Z,20.45
2023-05-22T06:49:15.949Z,20.16
2023-05-22T06:51:43.224Z,19.52
2023-05-22T06:54:12.430Z,19.76
2023-05-22T06:56:39.648Z,19.61
2023-05-22T06:59:06.680Z,19.48
2023-05-22T07:01:33.596Z,19.74
2023-05-22T07:04:01.439Z,19.49
2023-05-22T07:06:28.308Z,19.24
2023-05-22T07:08:57.726Z,19.26
2023-05-22T07:11:26.558Z,19.68
2023-05-22T07:13:55.353Z,19.18
2023-05-22T07:16:23.126Z,19.71
2023-05-22T07:18:49.958Z,19.94
2023-05-22T07:21:16.547Z,20.07
2023-05-22T07:23:43.174Z,20.22
2023-05-22T07:26:10.317Z,20.59
2023-05-22T07:28:36.934Z,20.50
2023-05-22T07:31:05.773Z,20.77
2023-05-22T07:33:32.614Z,20.46
2023-05-22T07:35:59.291Z,20.76
2023-05-22T07:38:30.481Z,20.63
2023-05-22T07:40:57.306Z,20.67
2023-05-22T07:43:23.970Z,20.81
2023-05-22T07:45:51.362Z,20.84
2023-05-22T07:48:20.345Z,20.95
2023-05-22T07:50:47.822Z,21.10
2023-05-22T07:53:17.622Z,21.20
2023-05-22T07:55:46.574Z,21.44
2023-05-22T07:58:16.099Z,21.12
2023-05-22T08:00:45.223Z,21.18
2023-05-22T08:03:12.352Z,21.31
2023-05-22T08:05:41.533Z,21.00
2023-05-22T08:08:10.381Z,20.86
2023-05-22T08:10:47.044Z,21.05
2023-05-22T08:13:19.425Z,20.66
2023-05-22T08:15:46.154Z,21.46
2023-05-22T08:18:15.312Z,21.36
2023-05-22T08:20:42.007Z,21.60
2023-05-22T08:23:13.389Z,21.16
2023-05-22T08:25:43.925Z,22.00
2023-05-22T08:28:10.541Z,21.97
2023-05-22T08:30:39.633Z,21.72
2023-05-22T08:33:08.866Z,21.59
2023-05-22T08:35:37.915Z,22.07
2023-05-22T08:38:04.727Z,21.99
2023-05-22T08:40:39.346Z,22.43
2023-05-22T08:43:08.642Z,21.49
2023-05-22T08:45:35.563Z,22.27
2023-05-22T08:48:06.507Z,22.72
2023-05-22T08:50:40.004Z,22.31
2023-05-22T08:53:08.430Z,22.28
2023-05-22T08:55:35.295Z,22.49
2023-05-22T08:58:02.636Z,22.81
2023-05-22T09:00:31.450Z,23.21
2023-05-22T09:02:58.392Z,23.25
2023-05-22T09:05:30.536Z,23.27
2023-05-22T09:08:08.488Z,22.50
2023-05-22T09:10:43.120Z,23.09
2023-05-22T09:13:11.257Z,23.23
2023-05-22T09:15:40.992Z,23.43
2023-05-22T09:18:09.746Z,23.64
2023-05-22T09:20:41.749Z,23.77
2023-05-22T09:23:19.888Z,22.75
2023-05-22T09:25:46.654Z,22.57
2023-05-22T09:28:13.362Z,23.13
2023-05-22T09:30:42.922Z,23.36
2023-05-22T09:33:13.050Z,23.42
2023-05-22T09:35:39.850Z,23.60
2023-05-22T09:38:10.187Z,22.99
2023-05-22T09:40:39.550Z,23.32
2023-05-22T09:43:17.390Z,23.42
2023-05-22T09:45:46.445Z,23.70
2023-05-22T09:48:22.586Z,23.81
2023-05-22T09:50:53.588Z,24.21
2023-05-22T09:53:28.143Z,23.70
2023-05-22T09:56:00.107Z,23.90
2023-05-22T09:58:30.891Z,24.04
2023-05-22T10:00:58.264Z,24.15
2023-05-22T10:03:27.478Z,24.54
2023-05-22T10:05:58.840Z,24.40
2023-05-22T10:08:28.477Z,24.77
2023-05-22T10:10:55.105Z,24.21
2023-05-22T10:13:22.088Z,24.46
2023-05-22T10:15:51.971Z,24.51
2023-05-22T10:18:18.890Z,24.74
2023-05-22T10:20:48.386Z,24.82
2023-05-22T10:23:18.920Z,24.71
2023-05-22T10:25:46.268Z,24.38
2023-05-22T10:28:21.665Z,24.52
2023-05-22T10:30:56.436Z,24.77
2023-05-22T10:33:35.324Z,24.70
2023-05-22T10:36:04.263Z,24.79
2023-05-22T10:38:36.228Z,25.32
2023-05-22T10:41:07.227Z,25.06
2023-05-22T10:43:39.484Z,25.30
2023-05-22T10:46:07.423Z,25.17
2023-05-22T10:48:39.276Z,25.58
2023-05-22T10:51:14.807Z,25.76
2023-05-22T10:53:45.859Z,25.79
2023-05-22T10:56:18.374Z,25.68
2023-05-22T10:58:55.852Z,25.16
2023-05-22T11:01:28.443Z,25.27
2023-05-22T11:03:58.642Z,25.54
2023-05-22T11:06:42.165Z,25.77
2023-05-22T11:09:31.000Z,25.45
2023-05-22T11:12:20.571Z,25.61
2023-05-22T11:14:56.431Z,25.87
2023-05-22T11:17:45.016Z,26.33
2023-05-22T11:20:29.314Z,26.42
2023-05-22T11:22:57.133Z,26.69
2023-05-22T11:25:27.015Z,26.11
2023-05-22T11:27:58.487Z,26.06
2023-05-22T11:30:26.919Z,26.24
2023-05-22T11:32:53.832Z,26.41
2023-05-22T11:35:24.570Z,27.02
2023-05-22T11:37:53.789Z,26.72
2023-05-22T11:40:27.221Z,26.81
2023-05-22T11:42:54.141Z,26.88
2023-05-22T11:45:21.571Z,26.83
2023-05-22T11:47:50.758Z,26.70
2023-05-22T11:50:33.610Z,27.17
2023-05-22T11:53:09.891Z,27.70
2023-05-22T11:55:36.537Z,27.87
2023-05-22T11:58:03.224Z,28.12
2023-05-22T12:00:31.665Z,28.23
2023-05-22T12:02:58.675Z,28.56
2023-05-22T12:05:27.969Z,27.37
2023-05-22T12:07:57.377Z,26.47
2023-05-22T12:10:26.051Z,26.14
2023-05-22T12:12:52.835Z,25.74
2023-05-22T12:15:21.663Z,25.85
2023-05-22T12:17:58.206Z,25.55
2023-05-22T12:20:30.401Z,25.41
2023-05-22T12:22:59.896Z,24.78
2023-05-22T12:25:35.978Z,24.78
2023-05-22T12:28:07.962Z,25.04
2023-05-22T12:30:43.631Z,24.72
2023-05-22T12:33:14.996Z,24.66
2023-05-22T12:35:44.108Z,24.93
2023-05-22T12:38:15.608Z,24.72
2023-05-22T12:40:42.681Z,24.77
2023-05-22T12:43:09.247Z,24.79
2023-05-22T12:45:41.316Z,24.35
2023-05-22T12:48:08.805Z,24.40
2023-05-22T12:50:36.226Z,24.42
2023-05-22T12:53:05.215Z,24.35
2023-05-22T12:55:38.142Z,24.33
2023-05-22T12:58:07.262Z,24.28
2023-05-22T13:00:34.427Z,24.32
2023-05-22T13:03:03.912Z,24.32
2023-05-22T13:05:32.832Z,24.23
2023-05-22T13:07:59.544Z,24.41
2023-05-22T13:10:26.212Z,24.45
2023-05-22T13:12:57.499Z,24.58
2023-05-22T13:15:24.268Z,24.27
2023-05-22T13:17:51.056Z,24.34
2023-05-22T13:20:20.087Z,24.50
2023-05-22T13:22:46.909Z,25.43
2023-05-22T13:25:13.550Z,25.96
2023-05-22T13:27:40.563Z,25.93
2023-05-22T13:30:07.693Z,26.29
2023-05-22T13:35:01.724Z,26.37
2023-05-22T13:37:33.716Z,26.51
2023-05-22T13:40:00.609Z,26.32
2023-05-22T13:42:27.245Z,26.17
2023-05-22T13:44:56.116Z,26.84
2023-05-22T13:47:23.287Z,26.52
2023-05-22T13:49:50.051Z,26.71
2023-05-22T13:52:18.869Z,26.63
2023-05-22T13:54:50.267Z,26.65
2023-05-22T13:57:16.849Z,26.88
2023-05-22T13:59:43.477Z,27.15
2023-05-22T14:02:10.105Z,27.06
2023-05-22T14:04:36.770Z,26.74
2023-05-22T14:07:08.088Z,27.16
2023-05-22T14:09:36.852Z,27.45
2023-05-22T14:12:08.318Z,26.96
2023-05-22T14:14:39.422Z,27.04
2023-05-22T14:17:08.522Z,26.94
2023-05-22T14:19:38.985Z,27.24
2023-05-22T14:22:05.646Z,27.35
2023-05-22T14:24:32.213Z,27.19
2023-05-22T14:26:58.895Z,26.58
2023-05-22T14:29:28.331Z,26.82
2023-05-22T14:32:01.401Z,26.67
2023-05-22T14:34:30.625Z,27.17
2023-05-22T14:37:01.715Z,27.34
2023-05-22T14:39:28.307Z,27.19
2023-05-22T14:41:54.950Z,27.25
2023-05-22T14:44:26.356Z,27.26
2023-05-22T14:46:56.006Z,27.35
2023-05-22T14:49:22.692Z,27.35
2023-05-22T14:51:49.446Z,27.35
2023-05-22T14:54:18.982Z,27.28
2023-05-22T14:56:46.103Z,27.04
2023-05-22T14:59:12.778Z,27.15
2023-05-22T15:01:41.750Z,27.38
2023-05-22T15:04:09.046Z,27.44
2023-05-22T15:06:40.534Z,26.97
2023-05-22T15:09:09.423Z,27.35
2023-05-22T15:11:38.290Z,27.51
2023-05-22T15:14:04.892Z,27.50
2023-05-22T15:16:36.064Z,27.24
2023-05-22T15:19:02.783Z,27.48
2023-05-22T15:21:32.694Z,27.33
2023-05-22T15:24:01.447Z,27.07
2023-05-22T15:26:32.888Z,27.22
2023-05-22T15:29:01.325Z,26.99
2023-05-22T15:31:30.319Z,27.30
2023-05-22T15:33:57.306Z,26.74
2023-05-22T15:36:27.640Z,26.69
2023-05-22T15:38:54.300Z,26.41
2023-05-22T15:41:21.863Z,26.19
2023-05-22T15:43:52.274Z,26.47
2023-05-22T15:46:19.047Z,26.65
2023-05-22T15:48:45.962Z,26.85
2023-05-22T15:51:15.398Z,26.98
2023-05-22T15:53:50.894Z,26.27
2023-05-22T15:56:17.575Z,26.68
2023-05-22T15:58:46.552Z,26.47
2023-05-22T16:01:13.505Z,26.09
2023-05-22T16:03:40.412Z,26.10
2023-05-22T16:06:09.386Z,26.45
2023-05-22T16:08:35.953Z,26.59
2023-05-22T16:11:05.029Z,26.73
2023-05-22T16:13:34.247Z,26.62
2023-05-22T16:16:03.701Z,26.58
2023-05-22T16:18:30.515Z,26.47
2023-05-22T16:20:57.088Z,26.51
2023-05-22T16:23:28.290Z,26.42
2023-05-22T16:25:59.518Z,26.46
2023-05-22T16:28:26.317Z,26.22
2023-05-22T16:30:52.925Z,26.20
2023-05-22T16:33:21.760Z,26.19
2023-05-22T16:35:48.314Z,26.23
2023-05-22T16:38:14.965Z,25.87
2023-05-22T16:40:41.655Z,26.17
2023-05-22T16:43:12.637Z,25.80
2023-05-22T16:45:41.207Z,25.89
2023-05-22T16:48:08.456Z,25.67
2023-05-22T16:50:35.079Z,25.71
2023-05-22T16:53:01.684Z,25.51
2023-05-22T16:55:28.233Z,25.51
2023-05-22T16:57:56.852Z,25.62
2023-05-22T17:00:28.155Z,25.42
2023-05-22T17:02:55.851Z,25.31
2023-05-22T17:05:22.617Z,25.34
2023-05-22T17:07:49.712Z,25.12
2023-05-22T17:10:16.415Z,25.17
2023-05-22T17:12:43.084Z,24.83
2023-05-22T17:15:12.264Z,24.66
2023-05-22T17:17:41.192Z,24.49
2023-05-22T17:20:11.465Z,24.41
2023-05-22T17:22:41.231Z,24.36
2023-05-22T17:25:08.349Z,24.29
2023-05-22T17:27:37.182Z,24.15
2023-05-22T17:30:09.577Z,24.01
2023-05-22T17:32:38.580Z,23.82
2023-05-22T17:35:08.278Z,23.67
2023-05-22T17:37:37.023Z,23.68
2023-05-22T17:40:04.837Z,23.59
2023-05-22T17:42:31.433Z,23.58
2023-05-22T17:44:58.055Z,23.38
2023-05-22T17:47:26.908Z,23.24
2023-05-22T17:49:53.575Z,23.09
2023-05-22T17:52:22.622Z,23.10
2023-05-22T17:54:50.011Z,22.85
2023-05-22T17:57:16.663Z,22.84
2023-05-22T17:59:46.131Z,22.80
2023-05-22T18:02:12.759Z,22.69
2023-05-22T18:04:41.803Z,22.53
2023-05-22T18:07:08.431Z,22.54
2023-05-22T18:09:35.081Z,22.43
2023-05-22T18:12:04.354Z,22.41
2023-05-22T18:14:31.028Z,22.23
2023-05-22T18:16:59.888Z,22.26
2023-05-22T18:19:30.462Z,22.28
2023-05-22T18:21:57.276Z,22.12
2023-05-22T18:24:25.110Z,22.05
2023-05-22T18:26:52.081Z,22.07
2023-05-22T18:29:21.026Z,22.02
2023-05-22T18:31:50.002Z,21.96
2023-05-22T18:34:16.680Z,21.92
2023-05-22T18:36:43.307Z,21.91
2023-05-22T18:39:10.984Z,21.88
2023-05-22T18:41:39.829Z,21.78
2023-05-22T18:44:07.694Z,21.72
2023-05-22T18:46:36.877Z,21.71
2023-05-22T18:49:06.332Z,21.69
2023-05-22T18:51:33.415Z,21.44
2023-05-22T18:54:00.004Z,21.34
2023-05-22T18:56:27.370Z,21.34
2023-05-22T18:58:56.986Z,21.30
2023-05-22T19:01:23.684Z,21.20
2023-05-22T19:03:50.298Z,21.09
2023-05-22T19:06:18.893Z,21.08
2023-05-22T19:08:47.778Z,21.00
2023-05-22T19:11:16.485Z,20.97
2023-05-22T19:13:43.496Z,20.82
2023-05-22T19:16:10.519Z,20.71
2023-05-22T19:18:37.582Z,20.84
2023-05-22T19:21:07.317Z,20.51
2023-05-22T19:23:34.042Z,20.50
2023-05-22T19:26:03.696Z,20.28
2023-05-22T19:28:32.305Z,20.15
2023-05-22T19:31:03.230Z,20.11
2023-05-22T19:33:32.353Z,20.19
2023-05-22T19:36:01.980Z,20.23
2023-05-22T19:38:31.240Z,20.13
2023-05-22T19:41:04.912Z,20.04
2023-05-22T19:43:32.042Z,20.04
2023-05-22T19:46:00.953Z,20.05
2023-05-22T19:48:31.555Z,20.00
2023-05-22T19:50:58.127Z,19.90
2023-05-22T19:53:27.898Z,19.84
2023-05-22T19:55:57.365Z,19.67
2023-05-22T19:58:28.771Z,19.64
2023-05-22T20:00:57.571Z,19.65
2023-05-22T20:03:28.860Z,19.56
2023-05-22T20:05:57.738Z,19.40
2023-05-22T20:08:26.914Z,19.24
2023-05-22T20:10:55.952Z,19.13
2023-05-22T20:13:24.939Z,19.03
2023-05-22T20:15:53.499Z,19.34
2023-05-22T20:18:23.061Z,19.37
2023-05-22T20:20:51.926Z,19.24
2023-05-22T20:23:20.677Z,19.05
2023-05-22T20:25:49.599Z,18.96
2023-05-22T20:28:18.381Z,19.15
2023-05-22T20:30:47.260Z,19.10
2023-05-22T20:33:14.434Z,19.32
2023-05-22T20:35:42.231Z,19.10
2023-05-22T20:38:09.953Z,19.04
2023-05-22T20:40:42.374Z,18.98
2023-05-22T20:43:13.941Z,18.90
2023-05-22T20:45:46.755Z,18.87
2023-05-22T20:48:16.686Z,18.80
2023-05-22T20:50:43.475Z,18.75
2023-05-22T20:53:12.811Z,18.66
2023-05-22T20:55:42.615Z,18.64
2023-05-22T20:58:09.656Z,18.53
2023-05-22T21:00:41.585Z,18.52
2023-05-22T21:03:11.785Z,18.42
2023-05-22T21:05:38.654Z,18.51
2023-05-22T21:08:05.411Z,18.42
2023-05-22T21:10:32.080Z,18.24
2023-05-22T21:13:03.431Z,18.16
2023-05-22T21:15:29.994Z,18.22
2023-05-22T21:17:56.621Z,18.15
2023-05-22T21:20:26.349Z,18.18
2023-05-22T21:22:55.168Z,18.14
2023-05-22T21:25:24.276Z,18.12
2023-05-22T21:27:50.984Z,18.07
2023-05-22T21:30:17.659Z,18.11
2023-05-22T21:32:44.314Z,18.12
2023-05-22T21:35:13.409Z,18.11
2023-05-22T21:37:42.294Z,18.16
2023-05-22T21:40:16.768Z,18.05
2023-05-22T21:42:46.329Z,18.00
2023-05-22T21:45:14.126Z,17.97
2023-05-22T21:47:40.852Z,17.95
2023-05-22T21:50:10.120Z,17.96
2023-05-22T21:52:36.755Z,17.86
2023-05-22T21:55:08.663Z,17.87
2023-05-22T21:57:35.524Z,17.93
2023-05-22T22:00:05.045Z,17.81
2023-05-22T22:02:31.822Z,17.76
2023-05-22T22:05:01.039Z,17.70
2023-05-22T22:07:32.792Z,17.59
2023-05-22T22:09:59.632Z,17.61
2023-05-22T22:12:26.646Z,17.68
2023-05-22T22:14:55.646Z,17.66
2023-05-22T22:17:24.775Z,17.61
2023-05-22T22:19:57.196Z,17.52
2023-05-22T22:22:24.872Z,17.63
2023-05-22T22:24:53.929Z,17.52
2023-05-22T22:27:20.563Z,17.57
2023-05-22T22:29:49.293Z,17.59
2023-05-22T22:32:15.997Z,17.59
2023-05-22T22:34:43.658Z,17.57
2023-05-22T22:37:10.303Z,17.51
2023-05-22T22:39:36.999Z,17.40
2023-05-22T22:42:06.435Z,17.38
2023-05-22T22:44:35.568Z,17.42
2023-05-22T22:47:02.284Z,17.45
2023-05-22T22:49:28.853Z,17.37
2023-05-22T22:51:56.589Z,17.38
2023-05-22T22:54:23.999Z,17.24
2023-05-22T22:56:53.030Z,16.93
2023-05-22T22:59:19.581Z,16.93
2023-05-22T23:01:51.412Z,16.99
2023-05-22T23:04:20.491Z,17.12
2023-05-22T23:06:49.542Z,17.11
2023-05-22T23:09:18.355Z,17.07
2023-05-22T23:11:47.087Z,16.95
2023-05-22T23:14:17.836Z,16.99
2023-05-22T23:16:44.442Z,17.04
2023-05-22T23:19:13.801Z,16.99
2023-05-22T23:21:42.739Z,17.02
2023-05-22T23:24:12.385Z,17.04
2023-05-22T23:26:38.938Z,17.03
2023-05-22T23:29:08.282Z,17.05
2023-05-22T23:31:40.409Z,17.09
2023-05-22T23:34:07.178Z,17.08
2023-05-22T23:36:36.867Z,17.06
2023-05-22T23:39:03.652Z,16.99
2023-05-22T23:41:30.251Z,16.67
2023-05-22T23:43:56.857Z,16.58
2023-05-22T23:46:24.418Z,16.72
2023-05-22T23:48:51.649Z,16.86
2023-05-22T23:51:18.820Z,16.97
2023-05-22T23:53:45.416Z,17.04
2023-05-22T23:56:14.826Z,17.05
2023-05-22T23:58:41.413Z,16.59
